M I D A S
Marine Information and Data Acquisition System
Tripno 662 of the Zeeleeuw from 2004-03-08 09:01:07 to 2004-03-08 14:46:37
Back to CruiseResearch ActivitiesStationsMapUnderway DataData graphs

EquipmentUnitsComment
TimeDGPSUTC
LatitudeDGPSDM.mWGS84
LongitudeDGPSDM.mWGS84
HeadingGyrodeg 
SOGDGPSknotsSpeed over ground
COGDGPSdegCourse over ground
DepthEcho soundermeters200 kHz
Missing or incorrect values are displayed as -999
Navigation data collected by the RV Zeeleeuw from 2004-03-08 09:01:07 to 2004-03-08 14:46:37
                                                                                    Next 1000 lines
Time Latitude Longitude Heading SOG COG Depth
2004-03-08 09:01:15 51°13.858 2°55.611 341.2 6.9 335 8.7
2004-03-08 09:01:20 51°13.867 2°55.605 341.1 7 335 8.6
2004-03-08 09:01:25 51°13.876 2°55.598 341.4 7.1 336 8.5
2004-03-08 09:01:29 51°13.883 2°55.593 341.6 7.2 335 8.5
2004-03-08 09:01:35 51°13.894 2°55.585 341.6 7.2 335 8.5
2004-03-08 09:01:39 51°13.901 2°55.58 341.2 7.2 335 8.4
2004-03-08 09:01:45 51°13.912 2°55.571 340.9 7.3 335 8.5
2004-03-08 09:01:49 51°13.92 2°55.566 340.8 7.3 334 8.6
2004-03-08 09:01:55 51°13.931 2°55.558 341.1 7.2 335 8.7
2004-03-08 09:02:00 51°13.94 2°55.551 341.4 7.2 335 8.9
2004-03-08 09:02:05 51°13.949 2°55.544 341.5 7.2 335 8.8
2004-03-08 09:02:10 51°13.957 2°55.538 341.3 7.1 335 9.1
2004-03-08 09:02:15 51°13.966 2°55.531 341.1 7.1 335 9.3
2004-03-08 09:02:20 51°13.975 2°55.524 341.1 7.1 335 9.3
2004-03-08 09:02:25 51°13.984 2°55.518 341.1 7.1 335 9.3
2004-03-08 09:02:29 51°13.991 2°55.512 341 7.1 334 9.3
2004-03-08 09:02:35 51°14.002 2°55.504 340.8 7 335 9.3
2004-03-08 09:02:40 51°14.01 2°55.498 341.1 7 335 9.4
2004-03-08 09:02:45 51°14.019 2°55.491 341.2 7 335 9.3
2004-03-08 09:02:49 51°14.026 2°55.486 341.3 7 335 9.3
2004-03-08 09:02:55 51°14.037 2°55.478 341.3 6.9 335 9.9
2004-03-08 09:02:59 51°14.044 2°55.473 341.5 7 335 9.9
2004-03-08 09:03:05 51°14.054 2°55.465 341.8 7.1 335 9.9
2004-03-08 09:03:09 51°14.062 2°55.46 342.2 7.2 336 10.1
2004-03-08 09:03:15 51°14.073 2°55.452 342.2 7.4 335 9.9
2004-03-08 09:03:20 51°14.082 2°55.445 342.1 7.6 335 9.9
2004-03-08 09:03:25 51°14.092 2°55.438 342.1 7.7 336 10
2004-03-08 09:03:29 51°14.1 2°55.432 342.2 7.8 335 10.2
2004-03-08 09:03:35 51°14.112 2°55.423 342 8 335 9.9
2004-03-08 09:03:40 51°14.122 2°55.415 341.5 8 335 -999
2004-03-08 09:03:45 51°14.132 2°55.408 341.5 8.1 335 -999
2004-03-08 09:03:50 51°14.142 2°55.4 341.1 8.2 334 9.9
2004-03-08 09:03:56 51°14.155 2°55.389 340.4 8.3 332 -999
2004-03-08 09:04:00 51°14.163 2°55.382 338.9 8.4 331 10.4
2004-03-08 09:04:05 51°14.173 2°55.373 337.5 8.4 330 9.7
2004-03-08 09:04:09 51°14.181 2°55.365 336 8.4 329 10.5
2004-03-08 09:04:15 51°14.193 2°55.353 334.3 8.5 326 -999
2004-03-08 09:04:20 51°14.202 2°55.342 332.3 8.5 325 -999
2004-03-08 09:04:25 51°14.212 2°55.33 329.4 8.5 322 -999
2004-03-08 09:04:31 51°14.223 2°55.316 327.8 8.5 321 -999
2004-03-08 09:04:35 51°14.23 2°55.305 326 8.9 318 9.9
2004-03-08 09:04:39 51°14.238 2°55.295 324.7 9.2 317 10.1
2004-03-08 09:04:45 51°14.249 2°55.277 322.6 9.5 315 10.5
2004-03-08 09:04:49 51°14.256 2°55.264 320.3 9.9 313 -999
2004-03-08 09:04:56 51°14.27 2°55.24 318.6 10.4 312 -999
2004-03-08 09:05:00 51°14.277 2°55.226 317.9 10.6 312 -999
2004-03-08 09:05:06 51°14.289 2°55.204 317.4 10.8 311 -999
2004-03-08 09:05:09 51°14.295 2°55.193 317.2 11.1 311 10.3
2004-03-08 09:05:15 51°14.308 2°55.171 317.9 11.2 312 -999
2004-03-08 09:05:20 51°14.318 2°55.152 317.5 11.4 311 -999
2004-03-08 09:05:25 51°14.328 2°55.132 316.8 11.5 310 -999
2004-03-08 09:05:30 51°14.339 2°55.112 316.3 11.6 309 9.9
2004-03-08 09:05:35 51°14.349 2°55.092 315.4 11.7 308 10.2
2004-03-08 09:05:40 51°14.358 2°55.071 314.7 11.7 307 9.6
2004-03-08 09:05:45 51°14.368 2°55.05 313.5 11.8 305 9.8
2004-03-08 09:05:49 51°14.375 2°55.032 311.9 11.8 304 9.7
2004-03-08 09:05:55 51°14.384 2°55.005 309.7 11.8 301 9.9
2004-03-08 09:05:59 51°14.389 2°54.986 305.5 11.9 293 9.5
2004-03-08 09:06:05 51°14.396 2°54.955 301.2 12 289 9.4
2004-03-08 09:06:10 51°14.4 2°54.93 297.4 12.1 286 9.7
2004-03-08 09:06:15 51°14.405 2°54.904 295.1 12.2 285 9.5
2004-03-08 09:06:20 51°14.409 2°54.877 293.7 12.2 284 9.5
2004-03-08 09:06:25 51°14.412 2°54.851 292 12.3 282 9.5
2004-03-08 09:06:30 51°14.416 2°54.824 290.5 12.4 281 9.4
2004-03-08 09:06:35 51°14.418 2°54.797 288.4 12.5 278 9.4
2004-03-08 09:06:39 51°14.419 2°54.775 286.5 12.5 276 9.4
2004-03-08 09:06:45 51°14.421 2°54.741 283.2 12.5 273 9.5
2004-03-08 09:06:49 51°14.42 2°54.72 280.4 12.5 270 9.4
2004-03-08 09:06:55 51°14.419 2°54.688 276.6 12 266 9.3
2004-03-08 09:07:00 51°14.417 2°54.662 273.4 11.6 262 9.4
2004-03-08 09:07:05 51°14.414 2°54.638 269.7 11.3 260 9.4
2004-03-08 09:07:09 51°14.411 2°54.619 266.2 11 257 9.4
2004-03-08 09:07:15 51°14.406 2°54.592 263.1 10.5 255 9.5
2004-03-08 09:07:20 51°14.402 2°54.571 260.5 10.3 251 9.6
2004-03-08 09:07:25 51°14.397 2°54.55 258 10.1 250 9.6
2004-03-08 09:07:29 51°14.393 2°54.534 256.1 9.9 247 9.4
2004-03-08 09:07:35 51°14.387 2°54.51 254.2 9.7 247 9.1
2004-03-08 09:07:39 51°14.382 2°54.495 252.5 9.6 246 8.9
2004-03-08 09:07:45 51°14.375 2°54.472 250.8 9.4 245 8.7
2004-03-08 09:07:49 51°14.37 2°54.458 249.3 9.3 242 8.6
2004-03-08 09:07:55 51°14.363 2°54.436 248 9.2 242 8.6
2004-03-08 09:07:59 51°14.358 2°54.423 247 9.1 241 8.5
2004-03-08 09:08:05 51°14.35 2°54.402 246 9 239 8.4
2004-03-08 09:08:09 51°14.345 2°54.388 244.8 9 239 8.4
2004-03-08 09:08:15 51°14.337 2°54.368 243.8 8.9 236 8.3
2004-03-08 09:08:20 51°14.33 2°54.351 242.8 9.4 238 8.3
2004-03-08 09:08:25 51°14.322 2°54.333 242.4 9.4 238 8.3
2004-03-08 09:08:29 51°14.316 2°54.318 241.3 10.5 236 8.4
2004-03-08 09:08:35 51°14.305 2°54.294 240.9 10.7 236 8.3
2004-03-08 09:08:40 51°14.297 2°54.272 241 11.7 237 8.2
2004-03-08 09:08:45 51°14.287 2°54.249 242 11.7 237 8.2
2004-03-08 09:08:49 51°14.28 2°54.23 243.7 12.8 240 8.1
2004-03-08 09:08:55 51°14.269 2°54.2 244.7 13 240 8.1
2004-03-08 09:08:59 51°14.261 2°54.179 244.1 13.4 240 8
2004-03-08 09:09:05 51°14.25 2°54.148 245 13.6 241 7.9
2004-03-08 09:09:09 51°14.243 2°54.126 246 13.8 244 7.9
2004-03-08 09:09:15 51°14.232 2°54.094 248.2 13.9 240 7.9
2004-03-08 09:09:20 51°14.224 2°54.066 249.2 13.9 244 7.8
2004-03-08 09:09:25 51°14.214 2°54.038 248.7 14.1 242 7.7
2004-03-08 09:09:29 51°14.208 2°54.016 248.3 14.1 243 7.7
2004-03-08 09:09:35 51°14.196 2°53.983 249 14.2 241 7.7
2004-03-08 09:09:39 51°14.189 2°53.961 247.6 14.2 243 7.8
2004-03-08 09:09:45 51°14.177 2°53.928 247.6 14.2 239 7.7
2004-03-08 09:09:50 51°14.167 2°53.9 246 14.3 241 7.7
2004-03-08 09:09:55 51°14.157 2°53.873 244.6 14.4 238 7.7
2004-03-08 09:09:59 51°14.149 2°53.852 244.1 14.3 239 7.7
2004-03-08 09:10:05 51°14.136 2°53.819 243.1 14.4 238 7.7
2004-03-08 09:10:10 51°14.126 2°53.792 244.1 14.4 240 7.9
2004-03-08 09:10:15 51°14.116 2°53.764 244.8 14.5 243 7.9
2004-03-08 09:10:20 51°14.108 2°53.735 247.2 14.5 245 7.8
2004-03-08 09:10:25 51°14.099 2°53.706 249.6 14.5 244 7.9
2004-03-08 09:10:29 51°14.094 2°53.682 252.6 14.5 249 7.8
2004-03-08 09:10:35 51°14.086 2°53.646 254.7 14.5 252 7.8
2004-03-08 09:10:40 51°14.079 2°53.615 257.6 14.4 252 8
2004-03-08 09:10:45 51°14.074 2°53.585 259.1 14.4 253 8
2004-03-08 09:10:50 51°14.068 2°53.554 260.3 14.5 253 7.9
2004-03-08 09:10:55 51°14.062 2°53.523 261 14.5 253 8
2004-03-08 09:11:00 51°14.056 2°53.493 261 14.6 252 8
2004-03-08 09:11:05 51°14.05 2°53.462 259.7 14.6 251 8.1
2004-03-08 09:11:09 51°14.043 2°53.438 257.9 14.7 249 8.1
2004-03-08 09:11:15 51°14.034 2°53.402 255.4 14.8 246 8.1
2004-03-08 09:11:19 51°14.027 2°53.377 253.5 14.9 247 8.1
2004-03-08 09:11:25 51°14.017 2°53.342 252.1 14.9 245 8.3
2004-03-08 09:11:29 51°14.01 2°53.318 251.8 14.9 246 8.3
2004-03-08 09:11:35 51°13.999 2°53.283 250.2 14.8 245 8.3
2004-03-08 09:11:40 51°13.989 2°53.253 249.8 14.9 242 8.3
2004-03-08 09:11:45 51°13.98 2°53.224 248.8 15 243 8.4
2004-03-08 09:11:49 51°13.973 2°53.2 250.3 15 245 8.4
2004-03-08 09:11:55 51°13.962 2°53.164 249.6 15 246 8.4
2004-03-08 09:11:59 51°13.955 2°53.139 251.3 15 246 8.6
2004-03-08 09:12:05 51°13.946 2°53.103 252.7 15.1 247 8.6
2004-03-08 09:12:10 51°13.939 2°53.071 254.6 15.1 249 8.7
2004-03-08 09:12:15 51°13.931 2°53.04 256.7 15.2 250 8.7
2004-03-08 09:12:19 51°13.926 2°53.015 257.3 15.1 251 8.9
2004-03-08 09:12:25 51°13.916 2°52.978 256.8 15.2 247 8.8
2004-03-08 09:12:29 51°13.911 2°52.952 256.9 15.1 249 8.9
2004-03-08 09:12:35 51°13.901 2°52.915 254.9 15.2 247 8.9
2004-03-08 09:12:40 51°13.892 2°52.884 255.4 15.3 244 8.9
2004-03-08 09:12:45 51°13.884 2°52.853 252.8 15.2 247 8.9
2004-03-08 09:12:50 51°13.874 2°52.823 252.5 15.3 245 8.9
2004-03-08 09:12:55 51°13.867 2°52.792 251 15.4 247 9
2004-03-08 09:13:00 51°13.857 2°52.762 250.6 15.3 244 9
2004-03-08 09:13:05 51°13.848 2°52.731 250.6 15.4 246 9
2004-03-08 09:13:09 51°13.841 2°52.707 251.6 15.3 244 9
2004-03-08 09:13:15 51°13.83 2°52.67 250.6 15.3 246 9.2
2004-03-08 09:13:19 51°13.823 2°52.646 251.7 15.3 243 9.2
2004-03-08 09:13:25 51°13.812 2°52.608 251 15.3 247 9.2
2004-03-08 09:13:29 51°13.804 2°52.584 251.5 15.3 244 9.2
2004-03-08 09:13:35 51°13.794 2°52.547 251.4 15.3 245 9.1
2004-03-08 09:13:40 51°13.785 2°52.517 251.2 15.3 244 9.2
2004-03-08 09:13:45 51°13.776 2°52.485 251.8 15.4 246 9.2
2004-03-08 09:13:50 51°13.768 2°52.455 253 15.3 246 9.2
2004-03-08 09:13:55 51°13.758 2°52.424 251.5 15.3 246 9.1
2004-03-08 09:13:59 51°13.751 2°52.399 250.3 15.5 249 9.2
2004-03-08 09:14:05 51°13.74 2°52.363 253.3 15.2 243 9.3
2004-03-08 09:14:09 51°13.734 2°52.338 250.5 15.3 244 9.2
2004-03-08 09:14:15 51°13.722 2°52.301 251.8 15.3 244 9.2
2004-03-08 09:14:19 51°13.716 2°52.275 250.6 15.4 249 9.3
2004-03-08 09:14:25 51°13.705 2°52.239 253.5 15.3 244 9.3
2004-03-08 09:14:30 51°13.697 2°52.207 251.1 15.4 245 9.4
2004-03-08 09:14:35 51°13.688 2°52.176 254.5 15.4 245 9.3
2004-03-08 09:14:40 51°13.681 2°52.144 252.6 15.4 250 9.5
2004-03-08 09:14:45 51°13.671 2°52.114 253.8 15.4 245 9.4
2004-03-08 09:14:49 51°13.665 2°52.088 253.2 15.4 247 9.5
2004-03-08 09:14:55 51°13.654 2°52.051 252.9 15.5 247 9.5
2004-03-08 09:14:59 51°13.647 2°52.026 252.6 15.5 244 9.6
2004-03-08 09:15:05 51°13.636 2°51.988 251.4 15.6 245 9.5
2004-03-08 09:15:09 51°13.628 2°51.964 250.5 15.4 244 9.6
2004-03-08 09:15:15 51°13.616 2°51.928 249.9 15.4 243 9.6
2004-03-08 09:15:19 51°13.608 2°51.904 247.5 15.5 243 9.6
2004-03-08 09:15:25 51°13.596 2°51.868 248.7 15.5 242 9.5
2004-03-08 09:15:29 51°13.588 2°51.843 247.4 15.5 242 9.4
2004-03-08 09:15:35 51°13.576 2°51.807 247.5 15.5 242 9.6
2004-03-08 09:15:40 51°13.566 2°51.777 248 15.6 243 9.5
2004-03-08 09:15:45 51°13.558 2°51.745 249.6 15.6 245 9.6
2004-03-08 09:15:49 51°13.55 2°51.721 250.7 15.4 244 9.7
2004-03-08 09:15:55 51°13.539 2°51.684 250.8 15.5 244 9.6
2004-03-08 09:15:59 51°13.532 2°51.658 251.4 15.5 245 9.6
2004-03-08 09:16:05 51°13.521 2°51.621 252.3 15.5 246 9.7
2004-03-08 09:16:10 51°13.513 2°51.589 251.6 15.5 248 9.8
2004-03-08 09:16:15 51°13.504 2°51.559 252.7 15.5 245 9.6
2004-03-08 09:16:20 51°13.495 2°51.528 250 15.5 246 9.8
2004-03-08 09:16:25 51°13.484 2°51.498 250.4 15.4 242 9.8
2004-03-08 09:16:29 51°13.477 2°51.473 248.5 15.6 246 9.7
2004-03-08 09:16:35 51°13.466 2°51.436 250.8 15.3 240 9.8
2004-03-08 09:16:40 51°13.456 2°51.406 248.6 15.3 240 9.8
2004-03-08 09:16:45 51°13.446 2°51.375 248.9 15.5 243 9.9
2004-03-08 09:16:49 51°13.439 2°51.35 249.6 15.5 245 9.8
2004-03-08 09:16:55 51°13.428 2°51.314 250.2 15.4 243 9.9
2004-03-08 09:17:00 51°13.419 2°51.283 250.2 15.4 245 10
2004-03-08 09:17:05 51°13.41 2°51.252 251.7 15.4 245 9.8
2004-03-08 09:17:10 51°13.401 2°51.221 251.2 15.4 245 9.8
2004-03-08 09:17:15 51°13.393 2°51.19 251.5 15.3 246 10
2004-03-08 09:17:20 51°13.383 2°51.159 251.4 15.4 243 9.9
2004-03-08 09:17:25 51°13.375 2°51.128 250 15.5 247 9.9
2004-03-08 09:17:29 51°13.367 2°51.104 251.1 15.3 243 10.1
2004-03-08 09:17:35 51°13.355 2°51.068 249.4 15.2 242 10
2004-03-08 09:17:39 51°13.347 2°51.044 247.5 15.4 245 10
2004-03-08 09:17:45 51°13.336 2°51.007 250 15.2 244 10
2004-03-08 09:17:49 51°13.329 2°50.983 248.7 15.2 243 10
2004-03-08 09:17:55 51°13.318 2°50.947 250 15.1 244 10
2004-03-08 09:18:00 51°13.308 2°50.917 249.9 15.2 243 10
2004-03-08 09:18:05 51°13.3 2°50.886 249.4 15.3 246 10.1
2004-03-08 09:18:09 51°13.292 2°50.862 249.9 15.3 244 10.1
2004-03-08 09:18:15 51°13.281 2°50.826 250.6 15.2 243 10.1
2004-03-08 09:18:19 51°13.274 2°50.802 250.2 15.2 243 10.1
2004-03-08 09:18:25 51°13.263 2°50.766 249.6 15.1 245 10.1
2004-03-08 09:18:30 51°13.254 2°50.735 250.1 15.2 244 10.1
2004-03-08 09:18:35 51°13.245 2°50.705 251.1 15.2 245 10.2
2004-03-08 09:18:39 51°13.237 2°50.682 249.6 15.2 243 10.1
2004-03-08 09:18:45 51°13.226 2°50.645 249.1 15.1 245 10.1
2004-03-08 09:18:50 51°13.216 2°50.615 249.3 15.2 242 10.2
2004-03-08 09:18:55 51°13.207 2°50.585 250.2 15.1 241 10.3
2004-03-08 09:19:00 51°13.198 2°50.555 249 15 245 10.2
2004-03-08 09:19:05 51°13.188 2°50.526 248.9 15 245 10.2
2004-03-08 09:19:09 51°13.182 2°50.501 249.1 15.2 246 10.3
2004-03-08 09:19:15 51°13.17 2°50.466 250.8 14.9 243 10.3
2004-03-08 09:19:20 51°13.161 2°50.436 250.2 14.9 244 10.2
2004-03-08 09:19:25 51°13.152 2°50.406 249.3 15.2 244 10.3
2004-03-08 09:19:30 51°13.143 2°50.375 250.1 15.2 245 10.3
2004-03-08 09:19:35 51°13.134 2°50.345 249.6 15.2 245 10.3
2004-03-08 09:19:39 51°13.127 2°50.321 251.9 15 244 10.2
2004-03-08 09:19:45 51°13.117 2°50.285 250 15.1 245 10.3
2004-03-08 09:19:50 51°13.107 2°50.255 251.3 15.1 246 10.3
2004-03-08 09:19:55 51°13.1 2°50.224 251 15.1 247 10.3
2004-03-08 09:20:00 51°13.09 2°50.194 251.6 15 244 10.4
2004-03-08 09:20:05 51°13.082 2°50.163 251.6 15.1 247 10.4
2004-03-08 09:20:09 51°13.074 2°50.14 251.2 15 245 10.5
2004-03-08 09:20:15 51°13.064 2°50.104 250.4 15 243 10.4
2004-03-08 09:20:19 51°13.056 2°50.08 249.5 15 243 10.4
2004-03-08 09:20:25 51°13.045 2°50.045 248.9 14.9 243 10.5
2004-03-08 09:20:30 51°13.035 2°50.016 248.3 15 241 10.6
2004-03-08 09:20:35 51°13.026 2°49.986 249.6 14.9 243 10.5
2004-03-08 09:20:40 51°13.017 2°49.956 249.6 14.9 244 10.6
2004-03-08 09:20:45 51°13.008 2°49.927 249.5 14.9 244 10.5
2004-03-08 09:20:49 51°13.002 2°49.903 251 14.9 246 10.5
2004-03-08 09:20:55 51°12.99 2°49.867 250.5 14.9 245 10.5
2004-03-08 09:21:00 51°12.982 2°49.837 250 15 245 10.6
2004-03-08 09:21:05 51°12.973 2°49.807 251.1 14.9 246 10.7
2004-03-08 09:21:09 51°12.966 2°49.784 251.2 14.9 244 10.6
2004-03-08 09:21:15 51°12.955 2°49.748 250.4 14.9 244 10.7
2004-03-08 09:21:20 51°12.946 2°49.719 249.4 14.9 242 10.8
2004-03-08 09:21:25 51°12.937 2°49.689 248.7 14.9 244 10.6
2004-03-08 09:21:29 51°12.929 2°49.666 249.4 14.8 243 10.6
2004-03-08 09:21:35 51°12.918 2°49.631 247.4 15 243 10.6
2004-03-08 09:21:39 51°12.91 2°49.607 248.8 15 244 10.7
2004-03-08 09:21:45 51°12.899 2°49.572 249.3 14.9 242 10.8
2004-03-08 09:21:50 51°12.889 2°49.543 248.2 14.9 243 10.6
2004-03-08 09:21:55 51°12.88 2°49.514 248 15 243 10.6
2004-03-08 09:22:00 51°12.87 2°49.484 247.9 15 243 10.6
2004-03-08 09:22:05 51°12.861 2°49.455 248.6 15 242 10.7
2004-03-08 09:22:09 51°12.853 2°49.431 248.6 15 244 10.7
2004-03-08 09:22:15 51°12.841 2°49.396 248.2 14.9 241 10.8
2004-03-08 09:22:19 51°12.834 2°49.373 247 15 243 10.9
2004-03-08 09:22:25 51°12.822 2°49.338 247.8 15 242 10.8
2004-03-08 09:22:29 51°12.815 2°49.314 248.2 15.1 243 10.9
2004-03-08 09:22:35 51°12.803 2°49.278 248.6 14.9 243 10.8
2004-03-08 09:22:39 51°12.795 2°49.256 248.2 14.9 242 10.9
2004-03-08 09:22:45 51°12.784 2°49.22 247.4 15.1 244 10.8
2004-03-08 09:22:49 51°12.776 2°49.196 248.7 15 242 10.9
2004-03-08 09:22:55 51°12.764 2°49.162 247.7 14.9 240 10.9
2004-03-08 09:22:59 51°12.756 2°49.138 246.6 15.1 240 10.8
2004-03-08 09:23:05 51°12.744 2°49.104 245.2 15.1 240 11
2004-03-08 09:23:09 51°12.735 2°49.08 246.5 15.1 239 10.9
2004-03-08 09:23:15 51°12.724 2°49.045 245.7 15 243 11.1
2004-03-08 09:23:20 51°12.713 2°49.017 247.6 15 238 10.9
2004-03-08 09:23:25 51°12.704 2°48.987 246.4 15 241 10.9
2004-03-08 09:23:29 51°12.695 2°48.965 246.4 15 239 10.8
2004-03-08 09:23:35 51°12.684 2°48.929 246.2 15 242 11
2004-03-08 09:23:40 51°12.673 2°48.901 247 14.9 240 11
2004-03-08 09:23:45 51°12.664 2°48.872 246.7 14.9 242 10.8
2004-03-08 09:23:49 51°12.655 2°48.849 245.9 14.9 241 11
2004-03-08 09:23:55 51°12.643 2°48.815 246 14.9 240 11
2004-03-08 09:24:00 51°12.633 2°48.786 246 14.9 240 11
2004-03-08 09:24:05 51°12.623 2°48.757 244.9 15.1 241 11.1
2004-03-08 09:24:10 51°12.613 2°48.727 247.2 15.1 244 11.1
2004-03-08 09:24:15 51°12.603 2°48.699 246.3 15 240 11.1
2004-03-08 09:24:19 51°12.595 2°48.675 245.8 15.2 240 11
2004-03-08 09:24:25 51°12.583 2°48.64 245.8 15.1 242 11.5
2004-03-08 09:24:29 51°12.574 2°48.617 245.6 15 240 11.1
2004-03-08 09:24:35 51°12.562 2°48.582 245.2 15.1 242 11
2004-03-08 09:24:39 51°12.554 2°48.559 246 15 240 11.2
2004-03-08 09:24:45 51°12.542 2°48.524 245.5 15.1 242 11
2004-03-08 09:24:50 51°12.532 2°48.494 245.2 15.2 240 11.2
2004-03-08 09:24:55 51°12.522 2°48.465 246.7 15 241 11.2
2004-03-08 09:25:00 51°12.512 2°48.436 246.5 15.2 241 11.2
2004-03-08 09:25:05 51°12.502 2°48.406 245.8 15.2 243 11.2
2004-03-08 09:25:09 51°12.493 2°48.383 246.4 15.2 240 11
2004-03-08 09:25:15 51°12.482 2°48.347 245.9 15.2 241 11.3
2004-03-08 09:25:20 51°12.472 2°48.318 245.5 15.2 240 11.3
2004-03-08 09:25:25 51°12.462 2°48.289 246.5 15.2 241 11.4
2004-03-08 09:25:29 51°12.453 2°48.265 245.5 15.2 241 11.2
2004-03-08 09:25:35 51°12.441 2°48.23 245.6 15.2 239 11.2
2004-03-08 09:25:39 51°12.433 2°48.206 245.3 15.2 241 11.3
2004-03-08 09:25:45 51°12.42 2°48.171 245.3 15.2 240 11.3
2004-03-08 09:25:49 51°12.413 2°48.147 246 15.2 242 11.4
2004-03-08 09:25:55 51°12.4 2°48.112 246 15.2 241 11.4
2004-03-08 09:26:00 51°12.39 2°48.082 245.8 15.2 241 11.4
2004-03-08 09:26:05 51°12.38 2°48.053 245.6 15.2 241 11.4
2004-03-08 09:26:09 51°12.372 2°48.029 246 15.3 242 11.4
2004-03-08 09:26:15 51°12.36 2°47.993 246.7 15.3 243 11.4
2004-03-08 09:26:20 51°12.349 2°47.964 247.1 15.2 240 11.4
2004-03-08 09:26:25 51°12.34 2°47.934 246.7 15.2 243 11.4
2004-03-08 09:26:29 51°12.332 2°47.911 245.9 15.4 242 11.5
2004-03-08 09:26:35 51°12.32 2°47.875 247.2 15.2 240 11.3
2004-03-08 09:26:39 51°12.311 2°47.851 246 15.2 240 11.4
2004-03-08 09:26:45 51°12.3 2°47.816 246.1 15.3 242 11.5
2004-03-08 09:26:49 51°12.291 2°47.792 246.4 15.3 243 11.6
2004-03-08 09:26:55 51°12.28 2°47.756 247.4 15.2 242 11.5
2004-03-08 09:27:00 51°12.27 2°47.726 246.2 15.4 242 11.4
2004-03-08 09:27:05 51°12.26 2°47.696 247.2 15.3 244 11.6
2004-03-08 09:27:10 51°12.25 2°47.666 246.7 15.3 241 11.5
2004-03-08 09:27:15 51°12.24 2°47.636 246 15.3 244 11.5
2004-03-08 09:27:19 51°12.231 2°47.613 246.3 15.4 240 11.4
2004-03-08 09:27:25 51°12.22 2°47.576 246.6 15.4 244 11.4
2004-03-08 09:27:29 51°12.212 2°47.552 246 15.3 242 11.5
2004-03-08 09:27:35 51°12.2 2°47.516 246.2 15.3 243 11.5
2004-03-08 09:27:40 51°12.19 2°47.486 245.9 15.6 242 11.4
2004-03-08 09:27:45 51°12.181 2°47.455 246.9 15.5 245 11.7
2004-03-08 09:27:50 51°12.17 2°47.426 246.7 15.4 241 11.6
2004-03-08 09:27:55 51°12.161 2°47.395 245.9 15.5 244 11.7
2004-03-08 09:28:00 51°12.15 2°47.365 246.7 15.5 241 11.6
2004-03-08 09:28:05 51°12.141 2°47.334 246.2 15.5 244 11.8
2004-03-08 09:28:09 51°12.133 2°47.31 246.5 15.5 242 11.7
2004-03-08 09:28:15 51°12.121 2°47.273 246.2 15.6 243 11.5
2004-03-08 09:28:19 51°12.113 2°47.249 246.6 15.5 242 11.7
2004-03-08 09:28:25 51°12.101 2°47.213 246.2 15.5 242 11.7
2004-03-08 09:28:30 51°12.091 2°47.182 245.9 15.5 243 11.8
2004-03-08 09:28:35 51°12.08 2°47.153 245.8 15.6 243 11.7
2004-03-08 09:28:40 51°12.07 2°47.122 246 15.6 242 11.7
2004-03-08 09:28:45 51°12.06 2°47.091 245.8 15.6 242 11.6
2004-03-08 09:28:49 51°12.053 2°47.067 246.3 15.5 243 11.8
2004-03-08 09:28:55 51°12.04 2°47.031 246.1 15.6 242 11.7
2004-03-08 09:29:00 51°12.03 2°47.001 246 15.5 243 11.7
2004-03-08 09:29:05 51°12.019 2°46.971 245.8 15.6 240 11.7
2004-03-08 09:29:09 51°12.012 2°46.946 245.5 15.6 240 11.8
2004-03-08 09:29:15 51°11.999 2°46.911 246 15.4 240 11.9
2004-03-08 09:29:20 51°11.988 2°46.881 244.6 15.5 241 11.6
2004-03-08 09:29:25 51°11.978 2°46.851 245.5 15.5 242 11.7
2004-03-08 09:29:29 51°11.969 2°46.827 245.3 15.5 242 11.5
2004-03-08 09:29:35 51°11.957 2°46.79 245.3 15.6 242 11.5
2004-03-08 09:29:40 51°11.947 2°46.76 246.4 15.6 243 11.7
2004-03-08 09:29:45 51°11.938 2°46.728 247.2 15.6 244 11.6
2004-03-08 09:29:49 51°11.93 2°46.704 247.7 15.6 244 11.6
2004-03-08 09:29:55 51°11.918 2°46.666 248.8 15.6 244 11.8
2004-03-08 09:30:00 51°11.909 2°46.636 247.2 15.5 243 11.7
2004-03-08 09:30:05 51°11.898 2°46.605 246.6 15.6 243 11.7
2004-03-08 09:30:09 51°11.891 2°46.58 246.5 15.6 243 11.8
2004-03-08 09:30:15 51°11.879 2°46.543 247.9 15.6 243 11.8
2004-03-08 09:30:20 51°11.869 2°46.513 247.4 15.6 243 11.9
2004-03-08 09:30:25 51°11.859 2°46.482 245.7 15.7 242 11.9
2004-03-08 09:30:30 51°11.849 2°46.451 246.9 15.7 242 11.8
2004-03-08 09:30:35 51°11.839 2°46.421 245.6 15.7 242 11.7
2004-03-08 09:30:40 51°11.828 2°46.39 244.4 15.7 242 11.7
2004-03-08 09:30:45 51°11.819 2°46.359 246 15.8 243 11.8
2004-03-08 09:30:49 51°11.81 2°46.334 246.2 15.8 242 11.8
2004-03-08 09:30:55 51°11.798 2°46.297 246.1 15.9 244 11.7
2004-03-08 09:31:00 51°11.788 2°46.266 246 15.8 243 11.8
2004-03-08 09:31:05 51°11.778 2°46.235 246.2 15.8 243 11.8
2004-03-08 09:31:10 51°11.767 2°46.205 246.3 15.8 242 11.7
2004-03-08 09:31:15 51°11.758 2°46.172 245.5 15.8 245 11.7
2004-03-08 09:31:20 51°11.748 2°46.143 247.5 15.6 241 11.7
2004-03-08 09:31:25 51°11.738 2°46.112 246.1 15.6 244 11.7
2004-03-08 09:31:29 51°11.729 2°46.087 245.3 15.8 240 11.6
2004-03-08 09:31:35 51°11.717 2°46.05 245.4 15.8 243 11.6
2004-03-08 09:31:39 51°11.709 2°46.026 245.3 15.7 240 11.8
2004-03-08 09:31:45 51°11.696 2°45.99 244.7 15.7 242 11.7
2004-03-08 09:31:50 51°11.686 2°45.959 244.7 15.9 241 11.7
2004-03-08 09:31:55 51°11.676 2°45.928 246 15.7 240 11.6
2004-03-08 09:31:59 51°11.667 2°45.904 245.3 15.6 240 11.7
2004-03-08 09:32:05 51°11.655 2°45.868 246 15.7 241 11.7
2004-03-08 09:32:09 51°11.647 2°45.842 245.6 16 243 11.7
2004-03-08 09:32:15 51°11.636 2°45.805 247.6 15.5 243 11.7
2004-03-08 09:32:20 51°11.625 2°45.775 246.7 15.5 241 11.6
2004-03-08 09:32:25 51°11.616 2°45.744 246.2 15.9 244 11.5
2004-03-08 09:32:30 51°11.606 2°45.712 247 16 243 11.5
2004-03-08 09:32:35 51°11.596 2°45.682 248.9 15.4 243 11.7
2004-03-08 09:32:40 51°11.586 2°45.652 246 15.7 243 11.6
2004-03-08 09:32:45 51°11.577 2°45.62 246.1 15.7 243 11.6
2004-03-08 09:32:50 51°11.566 2°45.591 246.3 15.5 240 11.5
2004-03-08 09:32:55 51°11.556 2°45.56 246 15.5 242 11.6
2004-03-08 09:33:00 51°11.546 2°45.53 245.2 15.6 242 11.6
2004-03-08 09:33:05 51°11.536 2°45.5 245.8 15.6 243 11.6
2004-03-08 09:33:09 51°11.528 2°45.475 246 15.5 242 11.6
2004-03-08 09:33:15 51°11.516 2°45.439 246.2 15.5 242 11.5
2004-03-08 09:33:19 51°11.508 2°45.414 246.3 15.6 242 11.5
2004-03-08 09:33:25 51°11.496 2°45.377 246.1 15.7 243 11.5
2004-03-08 09:33:30 51°11.487 2°45.347 246.7 15.5 244 11.4
2004-03-08 09:33:35 51°11.477 2°45.316 247 15.5 243 11.6
2004-03-08 09:33:40 51°11.468 2°45.285 247.2 15.5 245 11.5
2004-03-08 09:33:45 51°11.457 2°45.255 247 15.6 242 11.4
2004-03-08 09:33:49 51°11.451 2°45.23 247.6 15.5 245 11.4
2004-03-08 09:33:55 51°11.439 2°45.194 246.7 15.4 243 11.4
2004-03-08 09:34:00 51°11.429 2°45.163 246.7 15.4 244 11.4
2004-03-08 09:34:05 51°11.419 2°45.133 246.8 15.6 243 11.4
2004-03-08 09:34:09 51°11.412 2°45.108 246.8 15.5 243 11.4
2004-03-08 09:34:15 51°11.4 2°45.071 246.9 15.4 245 11.4
2004-03-08 09:34:19 51°11.393 2°45.047 247.4 15.5 244 11.4
2004-03-08 09:34:25 51°11.381 2°45.01 247.3 15.6 243 11.4
2004-03-08 09:34:29 51°11.374 2°44.985 247.7 15.4 244 11.4
2004-03-08 09:34:35 51°11.362 2°44.949 247.4 15.4 241 11.4
2004-03-08 09:34:40 51°11.352 2°44.918 245.3 15.4 241 11.2
2004-03-08 09:34:45 51°11.343 2°44.887 246.7 15.7 245 11.3
2004-03-08 09:34:49 51°11.335 2°44.863 247 15.6 242 11.2
2004-03-08 09:34:55 51°11.325 2°44.826 247.5 15.5 245 11.3
2004-03-08 09:35:00 51°11.314 2°44.796 247.5 15.3 241 11.2
2004-03-08 09:35:05 51°11.306 2°44.765 246.9 15.6 246 11.1
2004-03-08 09:35:09 51°11.298 2°44.74 248.2 15.6 244 11.1
2004-03-08 09:35:15 51°11.287 2°44.703 247.8 15.5 245 11.2
2004-03-08 09:35:20 51°11.277 2°44.673 247 15.4 243 11.2
2004-03-08 09:35:25 51°11.267 2°44.643 246.8 15.4 243 11.1
2004-03-08 09:35:29 51°11.259 2°44.619 245.4 15.4 243 11.1
2004-03-08 09:35:35 51°11.247 2°44.583 245.3 15.4 240 11.1
2004-03-08 09:35:39 51°11.239 2°44.559 244 15.5 242 10.9
2004-03-08 09:35:45 51°11.227 2°44.522 245.4 15.7 243 11.1
2004-03-08 09:35:49 51°11.22 2°44.498 246.6 15.4 242 11
2004-03-08 09:35:55 51°11.208 2°44.461 246 15.3 246 10.9
2004-03-08 09:35:59 51°11.201 2°44.437 248 15.4 243 10.8
2004-03-08 09:36:05 51°11.19 2°44.399 247.3 15.5 246 11
2004-03-08 09:36:09 51°11.183 2°44.375 250.3 15.6 249 10.9
2004-03-08 09:36:15 51°11.173 2°44.337 249.5 15.3 248 10.9
2004-03-08 09:36:20 51°11.164 2°44.306 250 15.4 246 10.9
2004-03-08 09:36:25 51°11.156 2°44.274 250.4 15.4 248 11
2004-03-08 09:36:30 51°11.147 2°44.243 252.6 15.4 248 10.9
2004-03-08 09:36:35 51°11.14 2°44.211 250.7 15.5 251 10.9
2004-03-08 09:36:39 51°11.133 2°44.187 252.6 15.3 245 11
2004-03-08 09:36:45 51°11.124 2°44.149 250.6 15.4 248 11
2004-03-08 09:36:50 51°11.115 2°44.118 251.5 15.3 247 10.8
2004-03-08 09:36:55 51°11.107 2°44.086 250 15.5 249 10.9
2004-03-08 09:36:59 51°11.1 2°44.061 251.5 15.5 249 11
2004-03-08 09:37:05 51°11.09 2°44.024 251 15.3 246 10.9
2004-03-08 09:37:10 51°11.082 2°43.992 250.6 15.3 248 11
2004-03-08 09:37:15 51°11.074 2°43.961 250.6 15.5 247 10.9
2004-03-08 09:37:20 51°11.065 2°43.929 251.2 15.5 247 10.8
2004-03-08 09:37:25 51°11.058 2°43.898 251.1 15.5 248 10.8
2004-03-08 09:37:30 51°11.049 2°43.867 252 15.3 249 10.9
2004-03-08 09:37:35 51°11.041 2°43.836 251 15.3 247 10.9
2004-03-08 09:37:40 51°11.033 2°43.805 250.4 15.4 247 10.9
2004-03-08 09:37:45 51°11.024 2°43.773 249.8 15.5 246 10.8
2004-03-08 09:37:50 51°11.016 2°43.742 250.8 15.5 248 10.8
2004-03-08 09:37:55 51°11.007 2°43.711 250.4 15.4 245 10.8
2004-03-08 09:37:59 51°11.001 2°43.685 250.4 15.3 248 10.8
2004-03-08 09:38:05 51°10.99 2°43.649 250.1 15.3 244 10.8
2004-03-08 09:38:09 51°10.983 2°43.624 249.4 15.3 245 10.9
2004-03-08 09:38:15 51°10.972 2°43.587 248.9 15.4 247 10.8
2004-03-08 09:38:19 51°10.965 2°43.562 249.2 15.3 245 10.7
2004-03-08 09:38:25 51°10.955 2°43.525 248.6 15.3 246 10.7
2004-03-08 09:38:30 51°10.946 2°43.494 249.4 15.3 245 10.7
2004-03-08 09:38:35 51°10.938 2°43.463 250.1 15.3 247 10.6
2004-03-08 09:38:40 51°10.93 2°43.432 250.3 15.3 247 10.7
2004-03-08 09:38:45 51°10.922 2°43.401 251.2 15.4 248 10.8
2004-03-08 09:38:49 51°10.915 2°43.376 251.2 15.3 247 10.7
2004-03-08 09:38:55 51°10.905 2°43.339 251 15.2 248 10.8
2004-03-08 09:38:59 51°10.899 2°43.314 251.1 15.2 248 10.6
2004-03-08 09:39:05 51°10.889 2°43.277 249.8 15.2 247 10.7
2004-03-08 09:39:09 51°10.882 2°43.252 250.1 15.3 245 10.6
2004-03-08 09:39:15 51°10.872 2°43.215 250.7 15.1 247 10.7
2004-03-08 09:39:20 51°10.863 2°43.185 249.9 15.1 245 10.7
2004-03-08 09:39:25 51°10.856 2°43.154 249.8 15.2 248 10.6
2004-03-08 09:39:29 51°10.849 2°43.129 250.4 15.2 246 10.5
2004-03-08 09:39:35 51°10.839 2°43.092 250.9 15.2 247 10.6
2004-03-08 09:39:39 51°10.833 2°43.067 251.4 15.1 249 10.6
2004-03-08 09:39:45 51°10.823 2°43.031 251.1 15 246 10.7
2004-03-08 09:39:49 51°10.817 2°43.006 250.4 15.2 247 10.6
2004-03-08 09:39:55 51°10.807 2°42.968 250 15.4 247 10.6
2004-03-08 09:39:59 51°10.8 2°42.944 250.6 15.3 246 10.5
2004-03-08 09:40:05 51°10.79 2°42.906 249.9 15.2 247 10.6
2004-03-08 09:40:09 51°10.783 2°42.883 249.5 15.1 246 10.5
2004-03-08 09:40:15 51°10.772 2°42.846 248.3 15.3 244 10.5
2004-03-08 09:40:19 51°10.765 2°42.822 248.2 15.3 244 10.6
2004-03-08 09:40:25 51°10.754 2°42.785 248.4 15.2 245 10.5
2004-03-08 09:40:29 51°10.748 2°42.76 248.8 15.3 247 10.5
2004-03-08 09:40:35 51°10.738 2°42.723 250 15.1 246 10.5
2004-03-08 09:40:40 51°10.73 2°42.693 250.3 15.1 246 10.5
2004-03-08 09:40:45 51°10.722 2°42.662 250.4 15.2 247 10.5
2004-03-08 09:40:49 51°10.715 2°42.636 250.7 15.3 247 10.4
2004-03-08 09:40:55 51°10.705 2°42.599 252.1 15.3 247 10.4
2004-03-08 09:40:59 51°10.699 2°42.574 252.3 15.1 248 10.5
2004-03-08 09:41:05 51°10.689 2°42.538 251.1 15 245 10.5
2004-03-08 09:41:10 51°10.681 2°42.508 250.3 15 247 10.5
2004-03-08 09:41:15 51°10.672 2°42.478 249.6 15 245 10.4
2004-03-08 09:41:19 51°10.665 2°42.454 248.9 15.1 244 10.4
2004-03-08 09:41:25 51°10.654 2°42.417 248 15.1 244 10.5
2004-03-08 09:41:29 51°10.647 2°42.393 248.5 15.2 245 10.4
2004-03-08 09:41:35 51°10.637 2°42.356 248.9 15.1 246 10.4
2004-03-08 09:41:40 51°10.629 2°42.326 249.6 15.1 246 10.5
2004-03-08 09:41:45 51°10.62 2°42.296 249.5 15 245 10.3
2004-03-08 09:41:50 51°10.612 2°42.265 250.4 15.1 248 10.4
2004-03-08 09:41:55 51°10.603 2°42.235 250.8 15.2 246 10.3
2004-03-08 09:42:00 51°10.596 2°42.203 250.2 15.2 247 10.3
2004-03-08 09:42:05 51°10.587 2°42.173 249.7 15.2 245 10.3
2004-03-08 09:42:09 51°10.58 2°42.148 250.3 15.3 248 10.3
2004-03-08 09:42:15 51°10.57 2°42.111 250.4 15.3 246 10.2
2004-03-08 09:42:19 51°10.564 2°42.086 249.8 15.3 246 10.3
2004-03-08 09:42:25 51°10.554 2°42.05 251.1 15.1 247 10.4
2004-03-08 09:42:29 51°10.547 2°42.025 249.8 15.1 245 10.4
2004-03-08 09:42:35 51°10.537 2°41.988 250 15.2 246 10.3
2004-03-08 09:42:40 51°10.529 2°41.957 249.9 15.3 249 10.2
2004-03-08 09:42:45 51°10.521 2°41.925 251.2 15.4 248 10.2
2004-03-08 09:42:49 51°10.516 2°41.9 253.3 15.1 250 10.3
2004-03-08 09:42:55 51°10.506 2°41.863 252.1 15.3 249 10.3
2004-03-08 09:42:59 51°10.5 2°41.837 252.4 15.3 250 10.3
2004-03-08 09:43:05 51°10.491 2°41.8 253.3 15.1 248 10.2
2004-03-08 09:43:10 51°10.483 2°41.769 251.3 15.1 247 10.3
2004-03-08 09:43:15 51°10.474 2°41.739 252.2 15.1 247 10.3
2004-03-08 09:43:20 51°10.467 2°41.707 250.6 15.3 249 10.4
2004-03-08 09:43:25 51°10.458 2°41.677 251.5 15.1 247 10.4
2004-03-08 09:43:29 51°10.451 2°41.653 250.3 15.1 248 10.4
2004-03-08 09:43:35 51°10.442 2°41.616 251 15.2 247 10.3
2004-03-08 09:43:39 51°10.435 2°41.591 250.8 15.3 247 10.4
2004-03-08 09:43:45 51°10.426 2°41.554 252.5 15.1 248 10.4
2004-03-08 09:43:49 51°10.42 2°41.529 251.1 15 248 10.3
2004-03-08 09:43:55 51°10.41 2°41.492 250.4 15.2 246 10.2
2004-03-08 09:44:00 51°10.402 2°41.461 251.5 15.1 247 10.3
2004-03-08 09:44:05 51°10.394 2°41.431 250.1 15 246 10.2
2004-03-08 09:44:09 51°10.387 2°41.406 250 15.1 247 10.2
2004-03-08 09:44:15 51°10.377 2°41.369 250.3 15.2 247 10.3
2004-03-08 09:44:20 51°10.369 2°41.339 250.7 14.9 247 10.3
2004-03-08 09:44:25 51°10.36 2°41.309 249.8 14.9 246 10.4
2004-03-08 09:44:29 51°10.353 2°41.285 249.5 15.2 247 10.3
2004-03-08 09:44:35 51°10.344 2°41.247 250.7 15.1 247 10.2
2004-03-08 09:44:40 51°10.335 2°41.217 251.1 15.1 247 10.2
2004-03-08 09:44:45 51°10.327 2°41.186 251.5 15 247 10.2
2004-03-08 09:44:49 51°10.32 2°41.162 249.6 15.2 244 10.2
2004-03-08 09:44:55 51°10.311 2°41.125 251.7 15.1 244 10.2
2004-03-08 09:44:59 51°10.304 2°41.101 249.6 15.1 244 10.2
2004-03-08 09:45:05 51°10.293 2°41.064 249.4 15 246 10.2
2004-03-08 09:45:09 51°10.286 2°41.04 248 15.2 248 10.3
2004-03-08 09:45:15 51°10.276 2°41.003 250.2 15.1 246 10.3
2004-03-08 09:45:20 51°10.268 2°40.973 250.8 15 246 10.1
2004-03-08 09:45:25 51°10.26 2°40.942 248.8 15.1 246 10.2
2004-03-08 09:45:29 51°10.253 2°40.918 248.9 15.1 245 10.3
2004-03-08 09:45:35 51°10.243 2°40.881 249 15.1 246 10.3
2004-03-08 09:45:40 51°10.234 2°40.851 249.4 15.1 248 10.3
2004-03-08 09:45:45 51°10.226 2°40.821 249.6 15 246 10.2
2004-03-08 09:45:49 51°10.219 2°40.796 250.4 15.1 248 10.3
2004-03-08 09:45:55 51°10.21 2°40.759 250.6 15.1 248 10.2
2004-03-08 09:45:59 51°10.204 2°40.734 251.1 15.1 248 10.2
2004-03-08 09:46:05 51°10.194 2°40.697 250.7 15.2 248 10.2
2004-03-08 09:46:09 51°10.188 2°40.672 251.9 15.1 247 10.3
2004-03-08 09:46:15 51°10.178 2°40.635 251.9 15 247 10.2
2004-03-08 09:46:20 51°10.17 2°40.605 250.4 15 247 10.2
2004-03-08 09:46:25 51°10.161 2°40.575 249.9 15.1 246 10.2
2004-03-08 09:46:29 51°10.155 2°40.55 249.7 15.2 247 10.2
2004-03-08 09:46:35 51°10.145 2°40.513 250.6 15.1 246 10.1
2004-03-08 09:46:40 51°10.136 2°40.483 249 15 246 10.3
2004-03-08 09:46:45 51°10.128 2°40.453 249 15 245 10.3
2004-03-08 09:46:49 51°10.121 2°40.429 248.9 15.1 247 10.3
2004-03-08 09:46:55 51°10.111 2°40.392 249.9 15 245 10.3
2004-03-08 09:46:59 51°10.104 2°40.368 249.2 14.9 247 10.2
2004-03-08 09:47:05 51°10.094 2°40.332 249.3 15 245 10.2
2004-03-08 09:47:09 51°10.087 2°40.308 248.7 15 247 10.2
2004-03-08 09:47:15 51°10.077 2°40.272 249.6 15 247 10.2
2004-03-08 09:47:20 51°10.069 2°40.241 249.5 15 246 10.2
2004-03-08 09:47:25 51°10.06 2°40.211 249.5 15 246 10.3
2004-03-08 09:47:30 51°10.052 2°40.18 250 15 247 10.2
2004-03-08 09:47:35 51°10.045 2°40.149 250.8 15.1 249 10.2
2004-03-08 09:47:39 51°10.037 2°40.125 250.7 15.2 245 10.1
2004-03-08 09:47:45 51°10.029 2°40.088 251.1 15.2 245 10.2
2004-03-08 09:47:49 51°10.021 2°40.064 250.2 15 244 10.1
2004-03-08 09:47:55 51°10.012 2°40.027 250 15 246 10.2
2004-03-08 09:47:59 51°10.005 2°40.003 250.1 15 248 10.2
2004-03-08 09:48:05 51°9.995 2°39.966 250.1 15.1 247 10.2
2004-03-08 09:48:09 51°9.989 2°39.941 250.4 15 249 10.2
2004-03-08 09:48:15 51°9.979 2°39.904 251 15.1 247 10.1
2004-03-08 09:48:20 51°9.972 2°39.873 250.7 15.1 250 10.2
2004-03-08 09:48:25 51°9.964 2°39.843 251.6 15 247 10.2
2004-03-08 09:48:29 51°9.958 2°39.818 251.3 15 248 10.2
2004-03-08 09:48:35 51°9.948 2°39.781 251.1 15 249 10.2
2004-03-08 09:48:40 51°9.939 2°39.751 251.1 15.1 245 10.2
2004-03-08 09:48:45 51°9.932 2°39.72 249.9 15.1 249 10
2004-03-08 09:48:49 51°9.925 2°39.696 250.4 15 247 10.1
2004-03-08 09:48:55 51°9.916 2°39.659 250.7 15.1 248 10.1
2004-03-08 09:49:00 51°9.908 2°39.628 250.9 15.1 248 10.1
2004-03-08 09:49:05 51°9.9 2°39.597 250.8 15 248 10
2004-03-08 09:49:09 51°9.893 2°39.573 250.7 15 247 10.3
2004-03-08 09:49:15 51°9.883 2°39.537 250.3 15.1 247 10.2
2004-03-08 09:49:19 51°9.877 2°39.512 250.4 15.1 249 10.1
2004-03-08 09:49:25 51°9.867 2°39.475 250.8 15 247 10.2
2004-03-08 09:49:29 51°9.861 2°39.451 249.7 15.1 247 10.2
2004-03-08 09:49:35 51°9.851 2°39.414 249.8 15.1 248 10.2
2004-03-08 09:49:39 51°9.844 2°39.39 250.4 15.1 246 10.3
2004-03-08 09:49:45 51°9.835 2°39.353 249.8 15.1 249 10.1
2004-03-08 09:49:49 51°9.828 2°39.328 250 15.1 247 10.2
2004-03-08 09:49:55 51°9.819 2°39.292 251 15 247 10.2
2004-03-08 09:50:00 51°9.811 2°39.261 250.7 15.1 248 10.3
2004-03-08 09:50:05 51°9.804 2°39.23 251.2 15.1 249 10.3
2004-03-08 09:50:09 51°9.797 2°39.205 252 15 248 10.3
2004-03-08 09:50:15 51°9.788 2°39.168 250.7 15.1 248 10.3
2004-03-08 09:50:20 51°9.78 2°39.137 250.8 15 248 10.4
2004-03-08 09:50:25 51°9.772 2°39.107 251.1 15 247 10.4
2004-03-08 09:50:29 51°9.766 2°39.082 250.2 15 249 10.4
2004-03-08 09:50:35 51°9.756 2°39.046 251 15 246 10.4
2004-03-08 09:50:40 51°9.748 2°39.015 249.5 15.1 249 10.4
2004-03-08 09:50:45 51°9.739 2°38.985 251.2 15.1 249 10.4
2004-03-08 09:50:49 51°9.733 2°38.96 249.5 15 247 10.4
2004-03-08 09:50:55 51°9.723 2°38.924 250.4 14.9 246 10.5
2004-03-08 09:51:00 51°9.715 2°38.893 249.7 15.1 248 10.5
2004-03-08 09:51:05 51°9.707 2°38.863 250.9 15.1 247 10.3
2004-03-08 09:51:10 51°9.699 2°38.832 250.3 15 248 10.3
2004-03-08 09:51:15 51°9.691 2°38.801 249.6 15 247 10.5
2004-03-08 09:51:20 51°9.683 2°38.771 250.7 15 247 10.5
2004-03-08 09:51:25 51°9.675 2°38.74 250.7 15 247 10.4
2004-03-08 09:51:30 51°9.667 2°38.71 249.8 15 248 10.6
2004-03-08 09:51:35 51°9.659 2°38.679 251.7 15.1 246 10.5
2004-03-08 09:51:40 51°9.652 2°38.648 250.1 15.1 250 10.5
2004-03-08 09:51:45 51°9.643 2°38.618 250.8 15 245 10.5
2004-03-08 09:51:50 51°9.636 2°38.587 250.3 15 249 10.6
2004-03-08 09:51:55 51°9.626 2°38.557 250.1 15.1 245 10.5
2004-03-08 09:52:00 51°9.619 2°38.526 249.3 14.9 249 10.5
2004-03-08 09:52:05 51°9.61 2°38.498 250.1 14.5 244 10.6
2004-03-08 09:52:09 51°9.605 2°38.475 248.9 14.1 245 10.5
2004-03-08 09:52:15 51°9.594 2°38.445 246.8 12.8 242 10.6
2004-03-08 09:52:19 51°9.588 2°38.426 245.2 12.2 238 10.5
2004-03-08 09:52:25 51°9.577 2°38.401 241.9 11.4 237 10.7
2004-03-08 09:52:30 51°9.568 2°38.383 237.8 10.4 232 10.7
2004-03-08 09:52:35 51°9.559 2°38.367 232.4 9.5 226 10.6
2004-03-08 09:52:39 51°9.552 2°38.356 226.2 9.5 226 10.6
2004-03-08 09:52:45 51°9.541 2°38.342 222.7 8.4 221 10.7
2004-03-08 09:52:49 51°9.534 2°38.334 219.3 7.7 217 10.8
2004-03-08 09:52:55 51°9.524 2°38.322 215.5 7.2 214 10.7
2004-03-08 09:53:00 51°9.516 2°38.314 212.1 7 213 10.8
2004-03-08 09:53:05 51°9.508 2°38.306 209.8 7 213 10.7
2004-03-08 09:53:10 51°9.501 2°38.3 208.1 6.1 210 10.7
2004-03-08 09:53:15 51°9.495 2°38.295 205 4.9 206 10.6
2004-03-08 09:53:20 51°9.489 2°38.291 200.7 4.5 205 10.7
2004-03-08 09:53:25 51°9.485 2°38.288 195.9 3.9 204 10.6
2004-03-08 09:53:30 51°9.48 2°38.285 191.2 3.5 201 10.6
2004-03-08 09:53:35 51°9.477 2°38.283 183.6 2.8 200 10.6
2004-03-08 09:53:40 51°9.474 2°38.281 177.5 2.1 205 10.6
2004-03-08 09:53:45 51°9.472 2°38.279 172 1.8 210 10.6
2004-03-08 09:53:50 51°9.471 2°38.276 167.8 1.6 217 10.5
2004-03-08 09:53:55 51°9.47 2°38.274 164.8 1.3 240 10.5
2004-03-08 09:54:00 51°9.469 2°38.271 162.9 1.4 247 10.5
2004-03-08 09:54:05 51°9.469 2°38.268 160.4 1.4 248 10.4
2004-03-08 09:54:09 51°9.468 2°38.266 159.2 1.5 248 10.5
2004-03-08 09:54:15 51°9.467 2°38.263 158.4 1.3 246 10.5
2004-03-08 09:54:20 51°9.466 2°38.26 157.9 1.5 246 10.6
2004-03-08 09:54:25 51°9.466 2°38.257 157.6 1.4 246 10.6
2004-03-08 09:54:30 51°9.465 2°38.254 157.5 1.5 245 10.5
2004-03-08 09:54:35 51°9.464 2°38.251 157.8 1.4 246 10.6
2004-03-08 09:54:40 51°9.463 2°38.248 157.7 1.4 242 10.6
2004-03-08 09:54:45 51°9.462 2°38.246 158.1 1.4 241 10.6
2004-03-08 09:54:49 51°9.461 2°38.243 158.2 1.4 241 10.5
2004-03-08 09:54:55 51°9.46 2°38.24 158.3 1.4 239 10.6
2004-03-08 09:54:59 51°9.459 2°38.238 158.6 1.4 240 10.5
2004-03-08 09:55:05 51°9.458 2°38.234 158.8 1.4 239 10.5
2004-03-08 09:55:09 51°9.458 2°38.232 158.9 1.5 240 10.5
2004-03-08 09:55:15 51°9.456 2°38.229 159.3 1.4 238 10.5
2004-03-08 09:55:20 51°9.455 2°38.226 159.4 1.4 238 10.5
2004-03-08 09:55:25 51°9.454 2°38.223 159.6 1.4 239 10.6
2004-03-08 09:55:30 51°9.453 2°38.221 159.8 1.5 240 10.6
2004-03-08 09:55:35 51°9.452 2°38.218 160.1 1.4 238 10.6
2004-03-08 09:55:39 51°9.451 2°38.216 160.1 1.4 238 10.6
2004-03-08 09:55:45 51°9.45 2°38.213 160.4 1.4 236 10.5
2004-03-08 09:55:49 51°9.449 2°38.211 160.7 1.4 236 10.5
2004-03-08 09:55:55 51°9.447 2°38.208 160.8 1.4 234 10.5
2004-03-08 09:56:00 51°9.446 2°38.205 160.9 1.4 235 10.5
2004-03-08 09:56:05 51°9.445 2°38.202 161.1 1.4 233 10.5
2004-03-08 09:56:11 51°9.444 2°38.199 161.1 1.4 233 10.5
2004-03-08 09:56:15 51°9.443 2°38.197 161 1.5 232 10.5
2004-03-08 09:56:20 51°9.441 2°38.195 160.9 1.5 233 10.5
2004-03-08 09:56:25 51°9.44 2°38.192 160.9 1.5 233 10.5
2004-03-08 09:56:30 51°9.439 2°38.19 160.8 1.5 231 10.5
2004-03-08 09:56:35 51°9.438 2°38.187 160.8 1.5 229 10.6
2004-03-08 09:56:40 51°9.436 2°38.184 161 1.5 228 10.6
2004-03-08 09:56:45 51°9.435 2°38.182 160.9 1.5 228 10.6
2004-03-08 09:56:50 51°9.433 2°38.18 160.9 1.5 228 10.5
2004-03-08 09:56:55 51°9.432 2°38.177 160.7 1.5 228 10.5
2004-03-08 09:57:00 51°9.43 2°38.175 160.4 1.5 228 10.5
2004-03-08 09:57:05 51°9.429 2°38.172 160.4 1.5 226 10.6
2004-03-08 09:57:10 51°9.428 2°38.17 160.4 1.5 223 10.5
2004-03-08 09:57:15 51°9.426 2°38.168 160.4 1.5 227 10.4
2004-03-08 09:57:20 51°9.425 2°38.166 160.2 1.4 225 10.4
2004-03-08 09:57:25 51°9.423 2°38.163 159.8 1.5 223 10.4
2004-03-08 09:57:29 51°9.422 2°38.162 159.4 1.5 223 10.5
2004-03-08 09:57:35 51°9.42 2°38.159 159.2 1.6 223 10.5
2004-03-08 09:57:39 51°9.419 2°38.157 159 1.4 220 10.5
2004-03-08 09:57:45 51°9.417 2°38.154 158.7 1.6 221 10.5
2004-03-08 09:57:50 51°9.416 2°38.152 158.4 1.4 220 10.5
2004-03-08 09:57:55 51°9.414 2°38.15 158.1 1.6 223 10.6
2004-03-08 09:58:00 51°9.412 2°38.148 157.7 1.4 217 10.5
2004-03-08 09:58:05 51°9.411 2°38.147 157.2 1.4 215 10.4
2004-03-08 09:58:09 51°9.41 2°38.145 156.8 1.5 219 10.5
2004-03-08 09:58:15 51°9.408 2°38.143 156.3 1.4 216 10.5
2004-03-08 09:58:20 51°9.406 2°38.141 155.7 1.5 218 10.5
2004-03-08 09:58:25 51°9.405 2°38.139 155.3 1.4 218 10.5
2004-03-08 09:58:30 51°9.403 2°38.137 154.6 1.4 217 10.5
2004-03-08 09:58:35 51°9.401 2°38.135 154.1 1.4 213 10.6
2004-03-08 09:58:40 51°9.4 2°38.133 153.6 1.4 216 10.5
2004-03-08 09:58:45 51°9.398 2°38.131 153 1.5 217 10.5
2004-03-08 09:58:50 51°9.396 2°38.129 152.5 1.5 217 10.5
2004-03-08 09:58:55 51°9.394 2°38.127 152 1.5 216 10.4
2004-03-08 09:59:00 51°9.393 2°38.126 151.6 1.5 213 10.4
2004-03-08 09:59:05 51°9.391 2°38.124 150.9 1.5 215 10.5
2004-03-08 09:59:10 51°9.39 2°38.122 150.3 1.5 217 10.5
2004-03-08 09:59:15 51°9.388 2°38.12 149.9 1.5 212 10.4
2004-03-08 09:59:20 51°9.386 2°38.118 149.8 1.4 213 10.5
2004-03-08 09:59:25 51°9.385 2°38.117 149.5 1.4 215 10.5
2004-03-08 09:59:30 51°9.383 2°38.115 149.3 1.4 214 10.4
2004-03-08 09:59:35 51°9.381 2°38.113 149.2 1.4 214 10.4
2004-03-08 09:59:40 51°9.38 2°38.112 149.4 1.4 213 10.4
2004-03-08 09:59:45 51°9.378 2°38.11 149.4 1.5 212 10.5
2004-03-08 09:59:49 51°9.376 2°38.109 149.4 1.9 194 10.5
2004-03-08 09:59:55 51°9.372 2°38.109 150.2 2.5 181 10.4
2004-03-08 10:00:00 51°9.368 2°38.109 152.6 2.9 180 10.4
2004-03-08 10:00:05 51°9.363 2°38.109 155.4 3.1 177 10.3
2004-03-08 10:00:10 51°9.358 2°38.11 159 3.7 178 10.3
2004-03-08 10:00:15 51°9.352 2°38.11 163.1 4.5 180 10.2
2004-03-08 10:00:20 51°9.345 2°38.109 168.6 4.9 182 10.2
2004-03-08 10:00:25 51°9.338 2°38.108 172.9 5.3 185 10.2
2004-03-08 10:00:30 51°9.33 2°38.106 177.8 5.6 188 10.2
2004-03-08 10:00:35 51°9.321 2°38.103 183.6 6.4 195 10.1
2004-03-08 10:00:40 51°9.312 2°38.098 189.5 6.6 200 10.1
2004-03-08 10:00:45 51°9.304 2°38.092 195.2 6.9 202 10
2004-03-08 10:00:49 51°9.297 2°38.085 201.1 7.2 208 9.9
2004-03-08 10:00:55 51°9.286 2°38.074 207.3 7.5 213 9.9
2004-03-08 10:01:00 51°9.277 2°38.063 213.3 7.9 218 9.8
2004-03-08 10:01:05 51°9.27 2°38.05 219.2 8 225 9.8
2004-03-08 10:01:10 51°9.262 2°38.037 225.1 8.3 228 9.8
2004-03-08 10:01:15 51°9.255 2°38.021 231.2 8.4 235 9.7
2004-03-08 10:01:20 51°9.249 2°38.005 237.2 8.5 240 9.8
2004-03-08 10:01:25 51°9.244 2°37.988 243.3 8.6 245 9.8
2004-03-08 10:01:30 51°9.24 2°37.97 249.6 8.7 250 9.6
2004-03-08 10:01:35 51°9.237 2°37.951 255.2 8.7 256 9.6
2004-03-08 10:01:40 51°9.235 2°37.932 261.9 8.7 260 9.6
2004-03-08 10:01:45 51°9.235 2°37.913 267.9 8.8 266 9.7
2004-03-08 10:01:49 51°9.235 2°37.897 274 8.8 268 9.7
2004-03-08 10:01:55 51°9.237 2°37.875 280.2 8.7 278 9.7
2004-03-08 10:02:00 51°9.24 2°37.856 286.2 8.7 278 9.8
2004-03-08 10:02:05 51°9.243 2°37.838 292.6 8.5 288 9.8
2004-03-08 10:02:09 51°9.247 2°37.824 299.2 8.5 291 10.1
2004-03-08 10:02:15 51°9.254 2°37.805 305.8 8.3 300 10
2004-03-08 10:02:20 51°9.261 2°37.79 311.3 8.3 305 10
2004-03-08 10:02:25 51°9.268 2°37.776 317.7 8.2 308 10.1
2004-03-08 10:02:30 51°9.276 2°37.764 323.7 8.1 315 10.1
2004-03-08 10:02:35 51°9.285 2°37.754 329.9 8 324 10.2
2004-03-08 10:02:40 51°9.294 2°37.745 335.9 7.8 326 10.4
2004-03-08 10:02:45 51°9.304 2°37.738 341.8 7.7 333 10.4
2004-03-08 10:02:49 51°9.312 2°37.733 347.5 7.7 338 10.5
2004-03-08 10:02:55 51°9.324 2°37.728 353.1 7.6 343 10.7
2004-03-08 10:03:00 51°9.335 2°37.725 357.6 7.6 350 10.7
2004-03-08 10:03:05 51°9.345 2°37.723 2.3 7.6 354 10.7
2004-03-08 10:03:09 51°9.354 2°37.722 5.2 7.7 355 10.9
2004-03-08 10:03:15 51°9.366 2°37.721 6.5 7.7 356 10.9
2004-03-08 10:03:19 51°9.375 2°37.72 7.3 7.7 357 11
2004-03-08 10:03:25 51°9.388 2°37.719 7.7 7.9 357 11
2004-03-08 10:03:30 51°9.399 2°37.718 8.1 8 358 11.3
2004-03-08 10:03:35 51°9.411 2°37.718 8.7 8.3 359 11.2
2004-03-08 10:03:40 51°9.423 2°37.718 10 8.7 2 11.4
2004-03-08 10:03:45 51°9.436 2°37.72 12.4 9 3 11.3
2004-03-08 10:03:49 51°9.446 2°37.722 14.2 9.2 6 11.4
2004-03-08 10:03:55 51°9.461 2°37.725 16.6 9.5 9 11.5
2004-03-08 10:04:00 51°9.474 2°37.729 18.2 9.6 9 11.6
2004-03-08 10:04:05 51°9.488 2°37.732 18.8 9.7 9 11.7
2004-03-08 10:04:09 51°9.499 2°37.735 18.1 9.8 8 11.8
2004-03-08 10:04:15 51°9.515 2°37.737 16.4 10.1 5 12
2004-03-08 10:04:20 51°9.53 2°37.739 14.6 10.2 5 12.2
2004-03-08 10:04:25 51°9.544 2°37.74 13.7 10.3 3 12.4
2004-03-08 10:04:29 51°9.555 2°37.741 12.8 10.3 2 12.6
2004-03-08 10:04:35 51°9.573 2°37.742 11.9 10.5 1 12.9
2004-03-08 10:04:39 51°9.584 2°37.742 10.9 10.5   13.1
2004-03-08 10:04:45 51°9.602 2°37.741 10.2 10.5 359 13.3
2004-03-08 10:04:50 51°9.616 2°37.74 9.4 10.6 359 13.4
2004-03-08 10:04:55 51°9.631 2°37.74 8.8 10.6 358 13.7
2004-03-08 10:05:00 51°9.646 2°37.739 8.2 10.6 358 13.9
2004-03-08 10:05:05 51°9.661 2°37.738 7.9 10.7 357 14.1
2004-03-08 10:05:10 51°9.675 2°37.736 7.6 10.3 357 14.3
2004-03-08 10:05:15 51°9.688 2°37.735 7.2 9.4 355 14.4
2004-03-08 10:05:20 51°9.7 2°37.732 6.5 8.9 353 14.6
2004-03-08 10:05:25 51°9.712 2°37.729 5.2 8.5 351 14.7
2004-03-08 10:05:29 51°9.72 2°37.726 3 7.9 347 14.9
2004-03-08 10:05:35 51°9.732 2°37.721 0.4 7.7 346 15.1
2004-03-08 10:05:39 51°9.74 2°37.717 357.5 7.1 341 15.2
2004-03-08 10:05:45 51°9.75 2°37.71 354.5 6.8 338 15.3
2004-03-08 10:05:49 51°9.757 2°37.705 351.6 6.5 335 15.4
2004-03-08 10:05:55 51°9.765 2°37.698 348.6 5.9 330 15.3
2004-03-08 10:06:00 51°9.772 2°37.691 346 5.7 329 15.4
2004-03-08 10:06:05 51°9.779 2°37.684 343.8 5.6 326 15.5
2004-03-08 10:06:09 51°9.783 2°37.678 341.3 5.5 324 16
2004-03-08 10:06:15 51°9.79 2°37.669 338.6 5.2 320 15.9
2004-03-08 10:06:19 51°9.794 2°37.663 336.1 5.1 317 16
2004-03-08 10:06:25 51°9.799 2°37.654 333.8 4.7 312 16.2
2004-03-08 10:06:29 51°9.802 2°37.647 330.9 4.6 309 15.9
2004-03-08 10:06:35 51°9.807 2°37.638 328.3 4.4 307 16
2004-03-08 10:06:40 51°9.81 2°37.63 326.7 4.3 305 16
2004-03-08 10:06:45 51°9.813 2°37.623 325.6 4.2 305 16
2004-03-08 10:06:49 51°9.816 2°37.617 324.5 4.1 302 16.1
2004-03-08 10:06:55 51°9.819 2°37.608 323.2 4 304 16.1
2004-03-08 10:07:00 51°9.822 2°37.6 322.1 4 301 16.1
2004-03-08 10:07:05 51°9.825 2°37.592 321.9 4 302 16.1
2004-03-08 10:07:10 51°9.828 2°37.585 323.9 4.1 303 16.1
2004-03-08 10:07:15 51°9.832 2°37.578 327.7 3.9 309 16.1
2004-03-08 10:07:20 51°9.835 2°37.572 332.4 3.9 312 16.2
2004-03-08 10:07:25 51°9.839 2°37.566 337.6 3.9 314 16.2
2004-03-08 10:07:29 51°9.843 2°37.562 342.9 3.8 319 16.2
2004-03-08 10:07:35 51°9.847 2°37.556 348.3 3.6 326 16.3
2004-03-08 10:07:40 51°9.852 2°37.553 353.7 3.5 331 16.5
2004-03-08 10:07:45 51°9.856 2°37.55 359.1 3.3 333 16.4
2004-03-08 10:07:49 51°9.859 2°37.548 4.4 3.2 341 16.4
2004-03-08 10:07:55 51°9.864 2°37.546 9.5 3.1 343 16.4
2004-03-08 10:08:00 51°9.868 2°37.545 15 2.9 352 16.5
2004-03-08 10:08:05 51°9.872 2°37.545 20.4 2.7 357 16.4
2004-03-08 10:08:10 51°9.876 2°37.545 25.8 2.7 2 16.4
2004-03-08 10:08:15 51°9.879 2°37.546 31.3 2.5 12 16.3
2004-03-08 10:08:20 51°9.882 2°37.548 36.7 2.4 18 16.3
2004-03-08 10:08:25 51°9.885 2°37.55 42 2.3 24 16.4
2004-03-08 10:08:30 51°9.887 2°37.553 46.3 2.2 33 16.4
2004-03-08 10:08:35 51°9.89 2°37.556 52.6 2.1 39 16.3
2004-03-08 10:08:39 51°9.891 2°37.559 58.1 2 52 16.3
2004-03-08 10:08:45 51°9.892 2°37.564 63.7 2 62 16.4
2004-03-08 10:08:49 51°9.893 2°37.567 69.5 2 68 16.3
2004-03-08 10:08:55 51°9.894 2°37.572 75.4 2.1 85 16.3
2004-03-08 10:09:00 51°9.894 2°37.577 81.1 2.1 88 16.5
2004-03-08 10:09:05 51°9.893 2°37.582 86.6 2.2 92 16.5
2004-03-08 10:09:09 51°9.893 2°37.586 91.6 2.3 103 16.5
2004-03-08 10:09:15 51°9.892 2°37.593 94.3 2.6 105 16.5
2004-03-08 10:09:20 51°9.891 2°37.598 95.7 2.7 108 16.4
2004-03-08 10:09:25 51°9.889 2°37.604 96.6 2.7 109 16.5
2004-03-08 10:09:29 51°9.888 2°37.609 96.6 2.9 110 16.4
2004-03-08 10:09:35 51°9.887 2°37.617 96.9 2.9 108 16.3
2004-03-08 10:09:40 51°9.885 2°37.623 97.3 3.1 109 16.3
2004-03-08 10:09:45 51°9.884 2°37.63 97.5 3.2 107 16.4
2004-03-08 10:09:49 51°9.883 2°37.636 98.1 3.3 109 16.4
2004-03-08 10:09:55 51°9.881 2°37.644 99.2 3.3 109 16.3
2004-03-08 10:10:00 51°9.879 2°37.652 99.6 3.5 109 16.2
2004-03-08 10:10:05 51°9.878 2°37.659 100.2 3.6 109 16.3
2004-03-08 10:10:10 51°9.876 2°37.666 100.7 3.6 111 16.1
2004-03-08 10:10:15 51°9.874 2°37.674 100.8 3.6 109 16.2
2004-03-08 10:10:20 51°9.872 2°37.681 100.9 3.6 109 16.2
2004-03-08 10:10:25 51°9.871 2°37.689 99.5 3.7 107 16.3
2004-03-08 10:10:30 51°9.869 2°37.698 99 3.7 106 16.3
2004-03-08 10:10:35 51°9.868 2°37.706 97.4 3.8 104 16.2
2004-03-08 10:10:40 51°9.867 2°37.714 96.5 3.8 104 16.4
2004-03-08 10:10:45 51°9.866 2°37.722 96.5 3.8 105 16.3
2004-03-08 10:10:49 51°9.865 2°37.728 97 3.8 105 16.3
2004-03-08 10:10:55 51°9.863 2°37.737 97.8 3.6 107 16.4
2004-03-08 10:11:00 51°9.861 2°37.745 98.7 3.4 109 16.3
2004-03-08 10:11:05 51°9.86 2°37.751 100 3.4 111 16.1
2004-03-08 10:11:09 51°9.859 2°37.757 100.8 3.1 113 16.1
2004-03-08 10:11:15 51°9.857 2°37.763 101.4 2.9 116 16.1
2004-03-08 10:11:20 51°9.855 2°37.767 102.3 2.1 119 16.1
2004-03-08 10:11:25 51°9.854 2°37.77 102.4 1.8 127 16.2
2004-03-08 10:11:29 51°9.853 2°37.772 102.3 1.5 137 16.4
2004-03-08 10:11:35 51°9.851 2°37.774 102.3 1.3 142 16.3
2004-03-08 10:11:40 51°9.85 2°37.774 103.4 0.9 177 16.2
2004-03-08 10:11:45 51°9.849 2°37.773 105.1 0.9 180 16.2
2004-03-08 10:11:50 51°9.847 2°37.773 106.9 0.9 196 16.1
2004-03-08 10:11:55 51°9.846 2°37.772 108.2 0.9 198 16.1
2004-03-08 10:12:00 51°9.845 2°37.771 109.8 1 198 16.2
2004-03-08 10:12:05 51°9.843 2°37.77 110.8 1.1 199 16.3
2004-03-08 10:12:09 51°9.842 2°37.77 111.6 1.1 199 16.2
2004-03-08 10:12:15 51°9.841 2°37.769 112.8 1.1 200 16.2
2004-03-08 10:12:20 51°9.839 2°37.768 113.9 1 201 16.2
2004-03-08 10:12:25 51°9.838 2°37.767 115.4 1.1 199 16
2004-03-08 10:12:31 51°9.836 2°37.766 116.7 1.1 199 16
2004-03-08 10:12:35 51°9.835 2°37.766 118.1 1.3 203 16
2004-03-08 10:12:40 51°9.833 2°37.765 119.4 1.2 199 16
2004-03-08 10:12:45 51°9.831 2°37.764 121.1 1.2 202 16
2004-03-08 10:12:49 51°9.83 2°37.763 122.1 1.2 199 15.9
2004-03-08 10:12:55 51°9.828 2°37.762 123.2 1.3 204 15.9
2004-03-08 10:12:59 51°9.827 2°37.761 124.1 1.2 202 15.9
2004-03-08 10:13:05 51°9.825 2°37.76 125.3 1.3 200 16
2004-03-08 10:13:09 51°9.824 2°37.759 125.8 1.2 198 16
2004-03-08 10:13:15 51°9.822 2°37.758 126.6 1.3 202 16
2004-03-08 10:13:20 51°9.82 2°37.757 127.4 1.3 202 16.2
2004-03-08 10:13:25 51°9.819 2°37.756 127.7 1.3 204 16.2
2004-03-08 10:13:29 51°9.817 2°37.755 127.9 1.3 202 16.2
2004-03-08 10:13:35 51°9.815 2°37.754 128.4 1.3 202 16.1
2004-03-08 10:13:40 51°9.814 2°37.752 128.5 1.3 203 16.1
2004-03-08 10:13:45 51°9.812 2°37.751 128.2 1.3 203 16.1
2004-03-08 10:13:49 51°9.811 2°37.75 127.6 1.3 203 16.2
2004-03-08 10:13:55 51°9.809 2°37.749 127.4 1.3 201 16.1
2004-03-08 10:14:00 51°9.807 2°37.748 127.2 1.4 205 16
2004-03-08 10:14:05 51°9.805 2°37.747 127.3 1.3 203 16
2004-03-08 10:14:10 51°9.804 2°37.746 127.3 1.3 203 15.9
2004-03-08 10:14:15 51°9.802 2°37.744 127.1 1.3 205 15.9
2004-03-08 10:14:20 51°9.801 2°37.743 127 1.3 203 15.9
2004-03-08 10:14:25 51°9.799 2°37.742 126.7 1.3 203 15.9
2004-03-08 10:14:29 51°9.798 2°37.741 126.2 1.4 203 15.9
2004-03-08 10:14:35 51°9.795 2°37.74 125.7 1.3 202 15.8
2004-03-08 10:14:40 51°9.794 2°37.739 125.6 1.3 202 15.8
2004-03-08 10:14:45 51°9.792 2°37.738 125.4 1.3 197 15.7
2004-03-08 10:14:49 51°9.791 2°37.737 125.2 1.3 195 15.7
2004-03-08 10:14:55 51°9.789 2°37.737 124.8 1.4 201 15.6
2004-03-08 10:15:00 51°9.787 2°37.736 124.1 1.2 191 15.5
2004-03-08 10:15:05 51°9.785 2°37.735 123.8 1.3 194 15.5
2004-03-08 10:15:10 51°9.784 2°37.734 123.1 1.3 193 15.5
2004-03-08 10:15:15 51°9.782 2°37.733 122.8 1.4 193 15.5
2004-03-08 10:15:20 51°9.78 2°37.733 122.6 1.3 191 15.6
2004-03-08 10:15:25 51°9.779 2°37.732 122.3 1.3 191 15.6
2004-03-08 10:15:30 51°9.777 2°37.732 122 1.3 193 15.8
2004-03-08 10:15:35 51°9.775 2°37.731 121.4 1.3 193 15.8
2004-03-08 10:15:39 51°9.774 2°37.731 120.8 1.3 192 15.7
2004-03-08 10:15:45 51°9.771 2°37.73 120.4 1.3 193 15.7
2004-03-08 10:15:51 51°9.769 2°37.73 120.3 1.3 189 15.6
2004-03-08 10:15:55 51°9.768 2°37.73 120 1.3 187 15.6
2004-03-08 10:16:00 51°9.766 2°37.73 119.7 1.3 187 15.6
2004-03-08 10:16:05 51°9.765 2°37.729 119.4 1.3 187 15.6
2004-03-08 10:16:10 51°9.763 2°37.729 119 1.2 184 15.6
2004-03-08 10:16:15 51°9.761 2°37.729 119 1.3 182 15.6
2004-03-08 10:16:20 51°9.759 2°37.729 118.8 1.3 180 15.6
2004-03-08 10:16:25 51°9.757 2°37.729 118.5 1.4 181 15.6
2004-03-08 10:16:30 51°9.756 2°37.729 118.2 1.3 179 15.7
2004-03-08 10:16:35 51°9.754 2°37.729 117.7 1.4 174 15.7
2004-03-08 10:16:39 51°9.752 2°37.729 117.5 1.4 178 15.7
2004-03-08 10:16:45 51°9.75 2°37.73 117.2 1.4 172 15.6
2004-03-08 10:16:50 51°9.748 2°37.731 116.8 1.4 174 15.5
2004-03-08 10:16:55 51°9.746 2°37.731 116.2 1.4 174 15.4
2004-03-08 10:16:59 51°9.745 2°37.731 115.7 1.3 165 15.4
2004-03-08 10:17:05 51°9.743 2°37.732 115.3 1.4 167 15.3
2004-03-08 10:17:10 51°9.741 2°37.733 114.7 1.4 168 15.3
2004-03-08 10:17:15 51°9.739 2°37.733 114.6 1.4 167 15.3
2004-03-08 10:17:19 51°9.737 2°37.734 114.3 1.4 168 15.4
2004-03-08 10:17:25 51°9.735 2°37.735 114.1 1.4 166 15.3
2004-03-08 10:17:30 51°9.733 2°37.736 113.7 1.4 163 15.2
2004-03-08 10:17:35 51°9.731 2°37.737 113.7 1.4 163 15.2
2004-03-08 10:17:40 51°9.729 2°37.737 113.2 1.4 163 15.2
2004-03-08 10:17:45 51°9.728 2°37.739 113.4 1.4 163 15.2
2004-03-08 10:17:49 51°9.726 2°37.739 112.9 1.5 164 15.3
2004-03-08 10:17:55 51°9.724 2°37.74 112.6 1.4 162 15.3
2004-03-08 10:18:00 51°9.722 2°37.741 112.4 1.5 162 15.3
2004-03-08 10:18:05 51°9.72 2°37.742 111.8 1.4 161 15.2
2004-03-08 10:18:09 51°9.719 2°37.743 111.6 1.4 160 15.1
2004-03-08 10:18:15 51°9.717 2°37.745 111.5 1.4 162 15
2004-03-08 10:18:20 51°9.715 2°37.745 111 1.5 162 15
2004-03-08 10:18:25 51°9.713 2°37.746 110.6 1.3 158 15
2004-03-08 10:18:30 51°9.711 2°37.748 110.4 1.5 161 15
2004-03-08 10:18:35 51°9.709 2°37.749 110.4 1.4 156 15
2004-03-08 10:18:40 51°9.707 2°37.75 110.4 1.4 161 14.8
2004-03-08 10:18:45 51°9.705 2°37.751 110.8 1.4 159 14.9
2004-03-08 10:18:51 51°9.703 2°37.752 110.9 1.4 157 14.9
2004-03-08 10:18:55 51°9.702 2°37.753 110.9 1.5 157 14.9
2004-03-08 10:18:59 51°9.7 2°37.755 110.4 1.4 159 15
2004-03-08 10:19:05 51°9.698 2°37.756 109.7 1.4 156 14.8
2004-03-08 10:19:09 51°9.697 2°37.757 109 1.4 154 14.7
2004-03-08 10:19:15 51°9.695 2°37.758 108.1 1.4 157 14.6
2004-03-08 10:19:19 51°9.694 2°37.76 107.3 1.3 154 14.7
2004-03-08 10:19:25 51°9.692 2°37.761 106.6 1.3 156 14.7
2004-03-08 10:19:29 51°9.69 2°37.762 105.5 1.2 154 14.7
2004-03-08 10:19:35 51°9.689 2°37.763 104.2 1.3 152 14.7
2004-03-08 10:19:39 51°9.687 2°37.764 103.1 1.2 153 14.6
2004-03-08 10:19:45 51°9.686 2°37.766 102.2 1.2 156 14.7
2004-03-08 10:19:49 51°9.684 2°37.767 101.2 1.1 152 14.6
2004-03-08 10:19:55 51°9.683 2°37.768 100.2 1.2 153 14.5
2004-03-08 10:19:59 51°9.682 2°37.769 99.3 1.2 157 14.7
2004-03-08 10:20:05 51°9.68 2°37.77 98.3 1 154 14.6
2004-03-08 10:20:09 51°9.679 2°37.771 97.6 1 151 14.5
2004-03-08 10:20:15 51°9.678 2°37.773 96.7 1.1 149 14.4
2004-03-08 10:20:20 51°9.676 2°37.774 96.1 1 151 14.4
2004-03-08 10:20:25 51°9.675 2°37.775 95.1 1 152 14.5
2004-03-08 10:20:29 51°9.674 2°37.776 94.2 0.9 150 14.5
2004-03-08 10:20:35 51°9.673 2°37.777 93.6 0.8 147 14.5
2004-03-08 10:20:40 51°9.672 2°37.778 92.5 0.9 150 14.5
2004-03-08 10:20:45 51°9.671 2°37.779 91.4 0.8 148 14.5
2004-03-08 10:20:49 51°9.67 2°37.78 89.9 0.9 148 14.5
2004-03-08 10:20:55 51°9.669 2°37.781 88.7 0.8 144 14.5
2004-03-08 10:21:00 51°9.668 2°37.782 87.8 0.9 147 14.5
2004-03-08 10:21:05 51°9.667 2°37.783 86.6 0.8 143 14.4
2004-03-08 10:21:09 51°9.667 2°37.784 85.7 0.7 143 14.4
2004-03-08 10:21:15 51°9.666 2°37.785 84.7 0.8 142 14.5
2004-03-08 10:21:20 51°9.665 2°37.786 83.8 0.7 142 14.4
2004-03-08 10:21:25 51°9.664 2°37.787 82.9 0.8 140 14.3
2004-03-08 10:21:29 51°9.664 2°37.788 82 0.6 139 14.2
2004-03-08 10:21:35 51°9.663 2°37.789 81 0.7 135 14.3
2004-03-08 10:21:40 51°9.663 2°37.79 79.6 0.7 139 14.3
2004-03-08 10:21:45 51°9.662 2°37.791 78.8 0.5 132 14.2
2004-03-08 10:21:49 51°9.662 2°37.791 78.1 0.6 139 14.3
2004-03-08 10:21:55 51°9.661 2°37.792 77 0.6 134 14.2
2004-03-08 10:22:00 51°9.66 2°37.793 76 0.5 132 14.2
2004-03-08 10:22:05 51°9.66 2°37.794 74.7 0.4 125 14.3
2004-03-08 10:22:11 51°9.66 2°37.795 73.5 0.4 130 14.3
2004-03-08 10:22:15 51°9.66 2°37.796 72.3 0.4 122 14.3
2004-03-08 10:22:20 51°9.659 2°37.797 71.1 0.5 109 14.2
2004-03-08 10:22:25 51°9.659 2°37.798 69.6 0.5 109 14.1
2004-03-08 10:22:29 51°9.659 2°37.799 68.4 0.5 100 14.1
2004-03-08 10:22:35 51°9.659 2°37.8 66.8 0.4 92 14.2
2004-03-08 10:22:40 51°9.659 2°37.801 65.2 0.4 80 14.3
2004-03-08 10:22:45 51°9.66 2°37.802 63.4 0.5 78 14.3
2004-03-08 10:22:50 51°9.66 2°37.802 61.8 0.5 70 14.2
2004-03-08 10:22:55 51°9.66 2°37.803 60.1 0.4 56 14.2
2004-03-08 10:23:00 51°9.661 2°37.804 58.6 0.5 62 14.2
2004-03-08 10:23:05 51°9.661 2°37.805 56.6 0.5 57 14.2
2004-03-08 10:23:09 51°9.662 2°37.806 55 0.6 43 14.2
2004-03-08 10:23:15 51°9.662 2°37.806 53.2 0.4 37 14.2
2004-03-08 10:23:20 51°9.663 2°37.807 51.5 0.4 30 14.1
2004-03-08 10:23:25 51°9.663 2°37.807 49.6 0.5 31 14.2
2004-03-08 10:23:29 51°9.664 2°37.808 47.8 0.5 12 14.1
2004-03-08 10:23:35 51°9.665 2°37.808 45.9 0.6 21 14.1
2004-03-08 10:23:40 51°9.666 2°37.808 44.2 0.5 10 14.2
2004-03-08 10:23:45 51°9.666 2°37.809 42.5 0.6 15 14.3
2004-03-08 10:23:49 51°9.667 2°37.809 40.5 0.6 3 14.3
2004-03-08 10:23:55 51°9.668 2°37.809 38.4 0.7 355 14.3
2004-03-08 10:24:00 51°9.669 2°37.808 36.2 0.8 347 14.4
2004-03-08 10:24:05 51°9.67 2°37.808 34 0.8 356 14.4
2004-03-08 10:24:09 51°9.671 2°37.808 31.7 0.9 343 14.4
2004-03-08 10:24:15 51°9.673 2°37.807 29.2 1 343 14.4
2004-03-08 10:24:19 51°9.674 2°37.806 26.3 1 337 14.4
2004-03-08 10:24:25 51°9.675 2°37.805 23.5 1.1 333 14.5